sensor_id;sensor_type;location;lat;lon;timestamp;pressure;altitude;pressure_sealevel;temperature;humidity
24610;BME280;12758;47.890;11.694;2022-09-06T00:02:23;94132.03;;;20.25;67.56
24610;BME280;12758;47.890;11.694;2022-09-06T00:04:49;94135.19;;;20.23;67.27
24610;BME280;12758;47.890;11.694;2022-09-06T00:07:15;94134.75;;;20.21;67.17
24610;BME280;12758;47.890;11.694;2022-09-06T00:09:41;94126.88;;;20.20;67.22
24610;BME280;12758;47.890;11.694;2022-09-06T00:12:07;94136.31;;;20.19;67.26
24610;BME280;12758;47.890;11.694;2022-09-06T00:14:34;94130.41;;;20.17;67.32
24610;BME280;12758;47.890;11.694;2022-09-06T00:17:00;94131.22;;;20.21;67.19
24610;BME280;12758;47.890;11.694;2022-09-06T00:19:26;94126.50;;;20.25;66.66
24610;BME280;12758;47.890;11.694;2022-09-06T00:21:52;94131.22;;;20.21;66.84
24610;BME280;12758;47.890;11.694;2022-09-06T00:24:18;94130.41;;;20.17;67.04
24610;BME280;12758;47.890;11.694;2022-09-06T00:26:44;94129.63;;;20.16;66.74
24610;BME280;12758;47.890;11.694;2022-09-06T00:29:10;94130.44;;;20.20;66.71
24610;BME280;12758;47.890;11.694;2022-09-06T00:31:37;94125.25;;;20.15;67.05
24610;BME280;12758;47.890;11.694;2022-09-06T00:34:03;94131.97;;;20.14;66.97
24610;BME280;12758;47.890;11.694;2022-09-06T00:36:29;94127.19;;;20.08;67.01
24610;BME280;12758;47.890;11.694;2022-09-06T00:38:55;94130.31;;;20.06;67.06
24610;BME280;12758;47.890;11.694;2022-09-06T00:41:21;94122.44;;;20.05;67.30
24610;BME280;12758;47.890;11.694;2022-09-06T00:43:47;94129.09;;;20.00;66.83
24610;BME280;12758;47.890;11.694;2022-09-06T00:46:16;94121.59;;;19.97;67.21
24610;BME280;12758;47.890;11.694;2022-09-06T00:48:43;94130.22;;;19.95;67.28
24610;BME280;12758;47.890;11.694;2022-09-06T00:51:10;94128.66;;;19.94;67.23
24610;BME280;12758;47.890;11.694;2022-09-06T00:53:38;94122.34;;;19.94;67.09
24610;BME280;12758;47.890;11.694;2022-09-06T00:56:04;94121.94;;;19.92;66.99
24610;BME280;12758;47.890;11.694;2022-09-06T00:58:30;94124.66;;;19.88;67.31
24610;BME280;12758;47.890;11.694;2022-09-06T01:00:56;94116.41;;;19.88;67.40
24610;BME280;12758;47.890;11.694;2022-09-06T01:03:23;94123.13;;;19.91;66.91
24610;BME280;12758;47.890;11.694;2022-09-06T01:06:01;94121.16;;;19.91;66.82
24610;BME280;12758;47.890;11.694;2022-09-06T01:08:38;94120.72;;;19.89;66.90
24610;BME280;12758;47.890;11.694;2022-09-06T01:11:26;94110.06;;;19.84;67.17
24610;BME280;12758;47.890;11.694;2022-09-06T01:13:59;94121.50;;;19.86;66.99
24610;BME280;12758;47.890;11.694;2022-09-06T01:16:32;94117.94;;;19.86;67.06
24610;BME280;12758;47.890;11.694;2022-09-06T01:19:27;94119.09;;;19.81;67.09
24610;BME280;12758;47.890;11.694;2022-09-06T01:22:03;94114.38;;;19.82;67.09
24610;BME280;12758;47.890;11.694;2022-09-06T01:24:49;94117.50;;;19.80;66.86
24610;BME280;12758;47.890;11.694;2022-09-06T01:27:40;94122.97;;;19.76;66.93
24610;BME280;12758;47.890;11.694;2022-09-06T01:30:12;94129.66;;;19.75;67.16
24610;BME280;12758;47.890;11.694;2022-09-06T01:32:42;94122.94;;;19.73;66.91
24610;BME280;12758;47.890;11.694;2022-09-06T01:35:16;94125.34;;;19.74;66.87
24610;BME280;12758;47.890;11.694;2022-09-06T01:37:46;94123.38;;;19.75;65.92
24610;BME280;12758;47.890;11.694;2022-09-06T01:40:12;94118.19;;;19.70;67.17
24610;BME280;12758;47.890;11.694;2022-09-06T01:42:38;94125.25;;;19.67;67.35
24610;BME280;12758;47.890;11.694;2022-09-06T01:45:09;94128.47;;;19.73;66.75
24610;BME280;12758;47.890;11.694;2022-09-06T01:47:38;94129.63;;;19.72;66.82
24610;BME280;12758;47.890;11.694;2022-09-06T01:53:16;94139.47;;;19.73;66.42
24610;BME280;12758;47.890;11.694;2022-09-06T01:55:48;94129.63;;;19.72;66.48
24610;BME280;12758;47.890;11.694;2022-09-06T01:58:28;94131.19;;;19.69;66.42
24610;BME280;12758;47.890;11.694;2022-09-06T02:00:59;94131.50;;;19.64;66.62
24610;BME280;12758;47.890;11.694;2022-09-06T02:03:28;94128.31;;;19.59;66.71
24610;BME280;12758;47.890;11.694;2022-09-06T02:05:59;94134.97;;;19.58;66.47
24610;BME280;12758;47.890;11.694;2022-09-06T02:08:30;94127.47;;;19.54;66.77
24610;BME280;12758;47.890;11.694;2022-09-06T02:10:58;94123.47;;;19.48;66.63
24610;BME280;12758;47.890;11.694;2022-09-06T02:13:28;94135.22;;;19.45;66.60
24610;BME280;12758;47.890;11.694;2022-09-06T02:15:57;94124.19;;;19.42;67.06
24610;BME280;12758;47.890;11.694;2022-09-06T02:18:26;94125.38;;;19.41;66.84
24610;BME280;12758;47.890;11.694;2022-09-06T02:20:54;94123.41;;;19.41;66.79
24610;BME280;12758;47.890;11.694;2022-09-06T02:23:23;94122.56;;;19.37;66.75
24610;BME280;12758;47.890;11.694;2022-09-06T02:25:52;94122.56;;;19.37;66.89
24610;BME280;12758;47.890;11.694;2022-09-06T02:28:19;94129.25;;;19.36;66.68
24610;BME280;12758;47.890;11.694;2022-09-06T02:30:47;94123.75;;;19.36;66.47
24610;BME280;12758;47.890;11.694;2022-09-06T02:33:16;94121.41;;;19.38;66.59
24610;BME280;12758;47.890;11.694;2022-09-06T02:35:44;94118.22;;;19.33;66.69
24610;BME280;12758;47.890;11.694;2022-09-06T02:38:11;94114.66;;;19.32;64.90
24610;BME280;12758;47.890;11.694;2022-09-06T02:40:37;94117.81;;;19.34;66.18
24610;BME280;12758;47.890;11.694;2022-09-06T02:43:03;94121.75;;;19.33;66.50
24610;BME280;12758;47.890;11.694;2022-09-06T02:45:30;94121.75;;;19.33;66.48
24610;BME280;12758;47.890;11.694;2022-09-06T02:47:56;94123.66;;;19.29;66.62
24610;BME280;12758;47.890;11.694;2022-09-06T02:50:22;94122.56;;;19.37;66.29
24610;BME280;12758;47.890;11.694;2022-09-06T02:53:00;94126.56;;;19.43;66.17
24610;BME280;12758;47.890;11.694;2022-09-06T02:55:26;94126.56;;;19.43;66.08
24610;BME280;12758;47.890;11.694;2022-09-06T02:57:52;94129.59;;;19.31;66.37
24610;BME280;12758;47.890;11.694;2022-09-06T03:00:18;94127.59;;;19.28;65.84
24610;BME280;12758;47.890;11.694;2022-09-06T03:02:44;94135.06;;;19.27;66.27
24610;BME280;12758;47.890;11.694;2022-09-06T03:05:10;94124.00;;;19.24;66.32
24610;BME280;12758;47.890;11.694;2022-09-06T03:07:37;94125.59;;;19.25;66.40
24610;BME280;12758;47.890;11.694;2022-09-06T03:10:04;94124.34;;;19.19;66.15
24610;BME280;12758;47.890;11.694;2022-09-06T03:12:30;94127.09;;;19.19;66.45
24610;BME280;12758;47.890;11.694;2022-09-06T03:14:56;94125.53;;;19.21;66.08
24610;BME280;12758;47.890;11.694;2022-09-06T03:17:22;94127.09;;;19.19;66.13
24610;BME280;12758;47.890;11.694;2022-09-06T03:19:48;94130.59;;;19.16;66.28
24610;BME280;12758;47.890;11.694;2022-09-06T03:22:14;94129.44;;;19.17;66.17
24610;BME280;12758;47.890;11.694;2022-09-06T03:24:41;94127.78;;;19.12;66.34
24610;BME280;12758;47.890;11.694;2022-09-06T03:27:07;94127.00;;;19.12;66.20
24610;BME280;12758;47.890;11.694;2022-09-06T03:29:33;94124.66;;;19.10;66.35
24610;BME280;12758;47.890;11.694;2022-09-06T03:31:59;94126.19;;;19.07;66.46
24610;BME280;12758;47.890;11.694;2022-09-06T03:34:25;94118.25;;;19.02;66.55
24610;BME280;12758;47.890;11.694;2022-09-06T03:36:51;94112.00;;;19.05;66.26
24610;BME280;12758;47.890;11.694;2022-09-06T03:39:17;94113.94;;;19.01;66.50
24610;BME280;12758;47.890;11.694;2022-09-06T03:41:44;94110.34;;;18.97;66.53
24610;BME280;12758;47.890;11.694;2022-09-06T03:44:10;94113.22;;;19.08;66.10
24610;BME280;12758;47.890;11.694;2022-09-06T03:46:36;94108.78;;;19.00;66.33
24610;BME280;12758;47.890;11.694;2022-09-06T03:49:02;94106.41;;;18.98;66.34
24610;BME280;12758;47.890;11.694;2022-09-06T03:51:28;94111.94;;;18.98;66.32
24610;BME280;12758;47.890;11.694;2022-09-06T03:53:54;94107.16;;;18.95;66.29
24610;BME280;12758;47.890;11.694;2022-09-06T03:56:20;94103.66;;;18.98;66.33
24610;BME280;12758;47.890;11.694;2022-09-06T03:58:47;94121.34;;;18.97;66.51
24610;BME280;12758;47.890;11.694;2022-09-06T04:01:13;94111.09;;;18.94;66.44
24610;BME280;12758;47.890;11.694;2022-09-06T04:03:39;94113.00;;;18.90;66.76
24610;BME280;12758;47.890;11.694;2022-09-06T04:06:06;94109.91;;;18.95;66.33
24610;BME280;12758;47.890;11.694;2022-09-06T04:08:34;94114.16;;;18.89;66.59
24610;BME280;12758;47.890;11.694;2022-09-06T04:11:00;94114.16;;;18.89;66.33
24610;BME280;12758;47.890;11.694;2022-09-06T04:13:28;94111.00;;;18.87;66.43
24610;BME280;12758;47.890;11.694;2022-09-06T04:15:55;94121.22;;;18.87;66.61
24610;BME280;12758;47.890;11.694;2022-09-06T04:18:21;94122.84;;;18.91;66.46
24610;BME280;12758;47.890;11.694;2022-09-06T04:20:48;94131.41;;;18.86;65.98
24610;BME280;12758;47.890;11.694;2022-09-06T04:23:15;94128.25;;;18.84;66.29
24610;BME280;12758;47.890;11.694;2022-09-06T04:25:44;94127.44;;;18.83;66.38
24610;BME280;12758;47.890;11.694;2022-09-06T04:28:10;94127.41;;;18.80;66.39
24610;BME280;12758;47.890;11.694;2022-09-06T04:30:36;94123.47;;;18.81;66.23
24610;BME280;12758;47.890;11.694;2022-09-06T04:33:03;94123.41;;;18.74;66.63
24610;BME280;12758;47.890;11.694;2022-09-06T04:35:29;94120.84;;;18.61;65.17
24610;BME280;12758;47.890;11.694;2022-09-06T04:37:58;94122.66;;;18.77;66.30
24610;BME280;12758;47.890;11.694;2022-09-06T04:40:25;94122.66;;;18.77;66.29
24610;BME280;12758;47.890;11.694;2022-09-06T04:42:51;94123.88;;;18.79;66.41
24610;BME280;12758;47.890;11.694;2022-09-06T04:45:17;94129.56;;;18.67;66.03
24610;BME280;12758;47.890;11.694;2022-09-06T04:47:43;94129.63;;;18.71;66.42
24610;BME280;12758;47.890;11.694;2022-09-06T04:50:09;94120.81;;;18.58;65.00
24610;BME280;12758;47.890;11.694;2022-09-06T04:52:35;94132.72;;;18.66;66.44
24610;BME280;12758;47.890;11.694;2022-09-06T04:55:02;94129.53;;;18.63;66.05
24610;BME280;12758;47.890;11.694;2022-09-06T04:57:28;94131.91;;;18.65;65.94
24610;BME280;12758;47.890;11.694;2022-09-06T04:59:54;94138.00;;;18.51;65.01
24610;BME280;12758;47.890;11.694;2022-09-06T05:02:20;94142.00;;;18.57;66.53
24610;BME280;12758;47.890;11.694;2022-09-06T05:04:46;94133.31;;;18.55;66.33
24610;BME280;12758;47.890;11.694;2022-09-06T05:07:13;94138.00;;;18.51;66.15
24610;BME280;12758;47.890;11.694;2022-09-06T05:09:39;94131.75;;;18.54;66.38
24610;BME280;12758;47.890;11.694;2022-09-06T05:12:05;94135.72;;;18.57;66.39
24610;BME280;12758;47.890;11.694;2022-09-06T05:14:32;94137.72;;;18.60;66.14
24610;BME280;12758;47.890;11.694;2022-09-06T05:16:58;94141.91;;;18.50;66.06
24610;BME280;12758;47.890;11.694;2022-09-06T05:19:24;94138.09;;;18.58;66.33
24610;BME280;12758;47.890;11.694;2022-09-06T05:21:50;94137.78;;;18.63;66.04
24610;BME280;12758;47.890;11.694;2022-09-06T05:24:17;94135.78;;;18.60;65.96
24610;BME280;12758;47.890;11.694;2022-09-06T05:26:43;94137.41;;;18.65;65.82
24610;BME280;12758;47.890;11.694;2022-09-06T05:29:09;94136.66;;;18.68;65.86
24610;BME280;12758;47.890;11.694;2022-09-06T05:31:35;94142.09;;;18.65;65.75
24610;BME280;12758;47.890;11.694;2022-09-06T05:34:02;94146.06;;;18.67;65.63
24610;BME280;12758;47.890;11.694;2022-09-06T05:36:29;94147.66;;;18.68;65.71
24610;BME280;12758;47.890;11.694;2022-09-06T05:38:55;94155.53;;;18.70;65.67
24610;BME280;12758;47.890;11.694;2022-09-06T05:41:23;94151.97;;;18.66;65.81
24610;BME280;12758;47.890;11.694;2022-09-06T05:43:49;94155.13;;;18.41;66.82
24610;BME280;12758;47.890;11.694;2022-09-06T05:46:15;94169.31;;;18.43;66.48
24610;BME280;12758;47.890;11.694;2022-09-06T05:48:41;94174.47;;;18.22;68.39
24610;BME280;12758;47.890;11.694;2022-09-06T05:51:09;94185.50;;;18.25;68.07
24610;BME280;12758;47.890;11.694;2022-09-06T05:53:38;94190.31;;;18.05;70.26
24610;BME280;12758;47.890;11.694;2022-09-06T05:56:05;94212.50;;;17.54;74.81
24610;BME280;12758;47.890;11.694;2022-09-06T05:58:32;94233.03;;;17.02;75.05
24610;BME280;12758;47.890;11.694;2022-09-06T06:01:06;94225.66;;;17.26;73.81
24610;BME280;12758;47.890;11.694;2022-09-06T06:03:32;94241.53;;;17.16;72.79
24610;BME280;12758;47.890;11.694;2022-09-06T06:05:58;94240.41;;;17.37;72.91
24610;BME280;12758;47.890;11.694;2022-09-06T06:08:24;94240.22;;;17.68;71.46
24610;BME280;12758;47.890;11.694;2022-09-06T06:10:50;94241.75;;;17.66;71.11
24610;BME280;12758;47.890;11.694;2022-09-06T06:13:16;94249.75;;;17.75;70.48
24610;BME280;12758;47.890;11.694;2022-09-06T06:15:43;94248.16;;;17.74;70.71
24610;BME280;12758;47.890;11.694;2022-09-06T06:18:09;94249.91;;;17.43;72.21
24610;BME280;12758;47.890;11.694;2022-09-06T06:20:35;94254.03;;;17.53;72.08
24610;BME280;12758;47.890;11.694;2022-09-06T06:23:01;94255.91;;;17.68;71.65
24610;BME280;12758;47.890;11.694;2022-09-06T06:25:27;94244.91;;;17.68;71.35
24610;BME280;12758;47.890;11.694;2022-09-06T06:27:53;94253.75;;;17.77;71.43
24610;BME280;12758;47.890;11.694;2022-09-06T06:30:19;94247.09;;;17.78;71.38
24610;BME280;12758;47.890;11.694;2022-09-06T06:32:46;94253.41;;;17.79;71.17
24610;BME280;12758;47.890;11.694;2022-09-06T06:35:12;94261.38;;;17.68;72.17
24610;BME280;12758;47.890;11.694;2022-09-06T06:37:38;94262.06;;;17.61;72.88
24610;BME280;12758;47.890;11.694;2022-09-06T06:40:07;94260.19;;;17.46;73.91
24610;BME280;12758;47.890;11.694;2022-09-06T06:42:33;94252.97;;;17.38;74.78
24610;BME280;12758;47.890;11.694;2022-09-06T06:44:59;94250.44;;;17.49;74.40
24610;BME280;12758;47.890;11.694;2022-09-06T06:47:25;94237.88;;;17.48;74.38
24610;BME280;12758;47.890;11.694;2022-09-06T06:49:52;94243.16;;;17.56;74.02
24610;BME280;12758;47.890;11.694;2022-09-06T06:52:18;94245.00;;;17.52;75.34
24610;BME280;12758;47.890;11.694;2022-09-06T06:54:45;94251.66;;;17.51;75.95
24610;BME280;12758;47.890;11.694;2022-09-06T06:57:13;94243.81;;;17.50;75.75
24610;BME280;12758;47.890;11.694;2022-09-06T06:59:39;94247.91;;;17.59;75.50
24610;BME280;12758;47.890;11.694;2022-09-06T07:02:05;94250.22;;;17.57;76.77
24610;BME280;12758;47.890;11.694;2022-09-06T07:04:31;94254.13;;;17.56;77.26
24610;BME280;12758;47.890;11.694;2022-09-06T07:06:58;94256.88;;;17.56;77.44
24610;BME280;12758;47.890;11.694;2022-09-06T07:09:24;94259.63;;;17.56;77.74
24610;BME280;12758;47.890;11.694;2022-09-06T07:11:51;94278.13;;;17.40;79.02
24610;BME280;12758;47.890;11.694;2022-09-06T07:14:17;94292.38;;;17.30;80.60
24610;BME280;12758;47.890;11.694;2022-09-06T07:16:44;94311.13;;;17.08;82.08
24610;BME280;12758;47.890;11.694;2022-09-06T07:19:12;94322.03;;;17.05;81.61
24610;BME280;12758;47.890;11.694;2022-09-06T07:21:38;94327.31;;;17.13;80.90
24610;BME280;12758;47.890;11.694;2022-09-06T07:24:05;94328.47;;;17.12;81.27
24610;BME280;12758;47.890;11.694;2022-09-06T07:26:33;94330.03;;;17.13;80.51
24610;BME280;12758;47.890;11.694;2022-09-06T07:29:00;94343.34;;;17.11;81.90
24610;BME280;12758;47.890;11.694;2022-09-06T07:31:27;94347.13;;;17.07;82.58
24610;BME280;12758;47.890;11.694;2022-09-06T07:33:53;94343.00;;;16.97;84.40
24610;BME280;12758;47.890;11.694;2022-09-06T07:36:19;94334.66;;;17.09;84.35
24610;BME280;12758;47.890;11.694;2022-09-06T07:38:46;94330.94;;;17.17;84.29
24610;BME280;12758;47.890;11.694;2022-09-06T07:41:14;94328.06;;;17.30;82.63
24610;BME280;12758;47.890;11.694;2022-09-06T07:43:41;94324.38;;;17.41;82.21
24610;BME280;12758;47.890;11.694;2022-09-06T07:46:08;94342.63;;;17.14;86.07
24610;BME280;12758;47.890;11.694;2022-09-06T07:48:36;94346.91;;;16.96;87.36
24610;BME280;12758;47.890;11.694;2022-09-06T07:51:04;94342.78;;;17.21;84.68
24610;BME280;12758;47.890;11.694;2022-09-06T07:53:31;94335.56;;;17.33;83.95
24610;BME280;12758;47.890;11.694;2022-09-06T07:55:58;94326.75;;;17.43;82.47
24610;BME280;12758;47.890;11.694;2022-09-06T07:58:25;94318.84;;;17.57;79.65
24610;BME280;12758;47.890;11.694;2022-09-06T08:00:51;94315.66;;;17.75;77.19
24610;BME280;12758;47.890;11.694;2022-09-06T08:03:17;94297.47;;;17.86;76.54
24610;BME280;12758;47.890;11.694;2022-09-06T08:05:43;94303.94;;;17.97;75.28
24610;BME280;12758;47.890;11.694;2022-09-06T08:08:13;94303.66;;;18.02;76.64
24610;BME280;12758;47.890;11.694;2022-09-06T08:10:39;94305.13;;;17.96;79.24
24610;BME280;12758;47.890;11.694;2022-09-06T08:13:05;94301.78;;;17.87;81.70
24610;BME280;12758;47.890;11.694;2022-09-06T08:15:32;94305.00;;;17.89;80.86
24610;BME280;12758;47.890;11.694;2022-09-06T08:17:58;94293.59;;;18.10;76.87
24610;BME280;12758;47.890;11.694;2022-09-06T08:20:24;94301.19;;;17.97;83.01
24610;BME280;12758;47.890;11.694;2022-09-06T08:22:50;94290.94;;;17.94;83.42
24610;BME280;12758;47.890;11.694;2022-09-06T08:25:16;94292.47;;;17.91;83.91
24610;BME280;12758;47.890;11.694;2022-09-06T08:27:42;94305.00;;;17.89;86.00
24610;BME280;12758;47.890;11.694;2022-09-06T08:30:09;94309.75;;;17.92;86.65
24610;BME280;12758;47.890;11.694;2022-09-06T08:32:36;94304.91;;;17.85;87.99
24610;BME280;12758;47.890;11.694;2022-09-06T08:35:03;94317.41;;;18.02;87.70
24610;BME280;12758;47.890;11.694;2022-09-06T08:37:30;94306.13;;;17.88;88.01
24610;BME280;12758;47.890;11.694;2022-09-06T08:39:56;94309.75;;;17.92;88.38
24610;BME280;12758;47.890;11.694;2022-09-06T08:42:22;94302.50;;;18.03;89.92
24610;BME280;12758;47.890;11.694;2022-09-06T08:44:49;94305.75;;;18.09;90.38
24610;BME280;12758;47.890;11.694;2022-09-06T08:47:17;94304.84;;;18.24;90.81
24610;BME280;12758;47.890;11.694;2022-09-06T08:49:46;94290.84;;;18.33;90.16
24610;BME280;12758;47.890;11.694;2022-09-06T08:52:33;94288.78;;;18.49;88.09
24610;BME280;12758;47.890;11.694;2022-09-06T08:55:23;94289.25;;;18.78;88.39
24610;BME280;12758;47.890;11.694;2022-09-06T08:58:00;94272.75;;;18.78;86.09
24610;BME280;12758;47.890;11.694;2022-09-06T09:00:29;94268.00;;;19.01;84.01
24610;BME280;12758;47.890;11.694;2022-09-06T09:03:01;94265.53;;;19.23;81.64
24610;BME280;12758;47.890;11.694;2022-09-06T09:05:31;94261.78;;;19.38;82.79
24610;BME280;12758;47.890;11.694;2022-09-06T09:08:01;94248.38;;;19.33;78.90
24610;BME280;12758;47.890;11.694;2022-09-06T09:10:30;94240.72;;;19.49;77.85
24610;BME280;12758;47.890;11.694;2022-09-06T09:12:56;94231.78;;;19.60;76.71
24610;BME280;12758;47.890;11.694;2022-09-06T09:15:26;94222.13;;;19.73;76.93
24610;BME280;12758;47.890;11.694;2022-09-06T09:17:53;94216.44;;;19.96;75.38
24610;BME280;12758;47.890;11.694;2022-09-06T09:20:20;94223.03;;;19.84;77.79
24610;BME280;12758;47.890;11.694;2022-09-06T09:22:47;94217.41;;;19.77;76.11
24610;BME280;12758;47.890;11.694;2022-09-06T09:25:17;94224.59;;;19.85;79.34
24610;BME280;12758;47.890;11.694;2022-09-06T09:27:44;94224.59;;;19.85;79.42
24610;BME280;12758;47.890;11.694;2022-09-06T09:30:11;94209.66;;;19.86;78.35
24610;BME280;12758;47.890;11.694;2022-09-06T09:32:38;94209.00;;;20.00;80.17
24610;BME280;12758;47.890;11.694;2022-09-06T09:35:21;94198.38;;;20.02;77.51
24610;BME280;12758;47.890;11.694;2022-09-06T09:37:55;94200.84;;;20.11;77.36
24610;BME280;12758;47.890;11.694;2022-09-06T09:40:27;94198.91;;;20.15;75.64
24610;BME280;12758;47.890;11.694;2022-09-06T09:42:55;94196.63;;;20.24;78.05
24610;BME280;12758;47.890;11.694;2022-09-06T09:45:24;94184.31;;;20.11;72.56
24610;BME280;12758;47.890;11.694;2022-09-06T09:47:50;94187.94;;;20.25;72.33
24610;BME280;12758;47.890;11.694;2022-09-06T09:50:22;94178.41;;;20.16;70.72
24610;BME280;12758;47.890;11.694;2022-09-06T09:52:49;94179.38;;;20.34;72.58
24610;BME280;12758;47.890;11.694;2022-09-06T09:55:15;94174.56;;;20.24;70.43
24610;BME280;12758;47.890;11.694;2022-09-06T09:57:46;94168.25;;;20.20;69.37
24610;BME280;12758;47.890;11.694;2022-09-06T10:00:29;94174.63;;;20.35;71.08
24610;BME280;12758;47.890;11.694;2022-09-06T10:02:56;94166.00;;;20.36;68.81
24610;BME280;12758;47.890;11.694;2022-09-06T10:05:22;94157.50;;;20.59;67.91
24610;BME280;12758;47.890;11.694;2022-09-06T10:07:50;94157.50;;;20.56;66.30
24610;BME280;12758;47.890;11.694;2022-09-06T10:10:20;94166.22;;;20.65;65.27
24610;BME280;12758;47.890;11.694;2022-09-06T10:12:46;94162.38;;;20.80;63.31
24610;BME280;12758;47.890;11.694;2022-09-06T10:15:31;94150.59;;;20.87;65.55
24610;BME280;12758;47.890;11.694;2022-09-06T10:17:57;94148.66;;;21.02;61.73
24610;BME280;12758;47.890;11.694;2022-09-06T10:20:24;94149.91;;;21.18;62.51
24610;BME280;12758;47.890;11.694;2022-09-06T10:22:58;94148.34;;;21.21;60.57
24610;BME280;12758;47.890;11.694;2022-09-06T10:25:36;94140.41;;;21.05;60.64
24610;BME280;12758;47.890;11.694;2022-09-06T10:28:27;94144.81;;;21.17;62.89
24610;BME280;12758;47.890;11.694;2022-09-06T10:31:03;94134.97;;;21.30;59.39
24610;BME280;12758;47.890;11.694;2022-09-06T10:33:34;94135.06;;;21.45;59.42
24610;BME280;12758;47.890;11.694;2022-09-06T10:36:04;94131.13;;;21.49;59.12
24610;BME280;12758;47.890;11.694;2022-09-06T10:38:45;94133.41;;;21.33;60.95
24610;BME280;12758;47.890;11.694;2022-09-06T10:41:24;94132.69;;;21.47;60.09
24610;BME280;12758;47.890;11.694;2022-09-06T10:46:37;94130.78;;;21.79;58.00
24610;BME280;12758;47.890;11.694;2022-09-06T10:49:07;94131.19;;;21.81;58.87
24610;BME280;12758;47.890;11.694;2022-09-06T10:51:37;94126.44;;;21.89;58.91
24610;BME280;12758;47.890;11.694;2022-09-06T10:54:07;94119.75;;;21.86;56.99
24610;BME280;12758;47.890;11.694;2022-09-06T10:56:37;94119.34;;;22.09;60.98
24610;BME280;12758;47.890;11.694;2022-09-06T10:59:08;94133.16;;;21.88;58.48
24610;BME280;12758;47.890;11.694;2022-09-06T11:01:39;94128.81;;;21.91;56.29
24610;BME280;12758;47.890;11.694;2022-09-06T11:04:07;94128.84;;;22.26;56.27
24610;BME280;12758;47.890;11.694;2022-09-06T11:06:39;94124.09;;;22.30;58.34
24610;BME280;12758;47.890;11.694;2022-09-06T11:09:11;94128.84;;;22.48;58.85
24610;BME280;12758;47.890;11.694;2022-09-06T11:11:42;94124.88;;;22.63;57.99
24610;BME280;12758;47.890;11.694;2022-09-06T11:14:11;94126.78;;;22.88;56.86
24610;BME280;12758;47.890;11.694;2022-09-06T11:16:42;94120.13;;;22.60;54.56
24610;BME280;12758;47.890;11.694;2022-09-06T11:19:10;94116.13;;;22.83;56.37
24610;BME280;12758;47.890;11.694;2022-09-06T11:24:38;94116.06;;;23.04;59.79
24610;BME280;12758;47.890;11.694;2022-09-06T11:27:10;94109.81;;;22.75;57.10
24610;BME280;12758;47.890;11.694;2022-09-06T11:29:39;94112.19;;;22.76;59.03
24610;BME280;12758;47.890;11.694;2022-09-06T11:32:26;94107.88;;;22.54;58.35
24610;BME280;12758;47.890;11.694;2022-09-06T11:34:54;94107.47;;;22.59;58.29
24610;BME280;12758;47.890;11.694;2022-09-06T11:37:23;94099.59;;;22.54;59.16
24610;BME280;12758;47.890;11.694;2022-09-06T11:40:02;94112.16;;;22.84;58.98
24610;BME280;12758;47.890;11.694;2022-09-06T11:45:38;94105.94;;;22.29;60.71
24610;BME280;12758;47.890;11.694;2022-09-06T11:48:29;94110.56;;;22.97;60.17
24610;BME280;12758;47.890;11.694;2022-09-06T11:51:01;94108.13;;;23.13;57.06
24610;BME280;12758;47.890;11.694;2022-09-06T11:53:28;94106.41;;;23.44;58.03
24610;BME280;12758;47.890;11.694;2022-09-06T11:56:10;94096.09;;;23.45;56.50
24610;BME280;12758;47.890;11.694;2022-09-06T11:58:46;94101.53;;;23.59;56.77
24610;BME280;12758;47.890;11.694;2022-09-06T12:01:35;94097.19;;;23.58;57.45
24610;BME280;12758;47.890;11.694;2022-09-06T12:04:09;94103.09;;;23.71;56.95
24610;BME280;12758;47.890;11.694;2022-09-06T12:06:38;94091.34;;;23.45;55.19
24610;BME280;12758;47.890;11.694;2022-09-06T12:09:36;94090.44;;;23.59;58.56
24610;BME280;12758;47.890;11.694;2022-09-06T12:12:03;94092.88;;;23.54;59.64
24610;BME280;12758;47.890;11.694;2022-09-06T12:14:35;94095.56;;;23.71;56.49
24610;BME280;12758;47.890;11.694;2022-09-06T12:17:25;94092.69;;;23.86;58.20
24610;BME280;12758;47.890;11.694;2022-09-06T12:19:57;94085.63;;;23.78;57.97
24610;BME280;12758;47.890;11.694;2022-09-06T12:23:00;94087.91;;;23.90;58.30
24610;BME280;12758;47.890;11.694;2022-09-06T12:25:50;94080.56;;;23.58;55.84
24610;BME280;12758;47.890;11.694;2022-09-06T12:28:23;94079.38;;;23.63;57.66
24610;BME280;12758;47.890;11.694;2022-09-06T12:30:50;94077.63;;;23.87;56.32
24610;BME280;12758;47.890;11.694;2022-09-06T12:33:21;94079.91;;;23.99;56.58
24610;BME280;12758;47.890;11.694;2022-09-06T12:35:49;94078.38;;;23.91;57.44
24610;BME280;12758;47.890;11.694;2022-09-06T12:38:22;94079.16;;;23.95;60.07
24610;BME280;12758;47.890;11.694;2022-09-06T12:40:49;94072.16;;;23.80;57.38
24610;BME280;12758;47.890;11.694;2022-09-06T12:43:17;94079.09;;;24.02;60.67
24610;BME280;12758;47.890;11.694;2022-09-06T12:45:45;94072.94;;;23.80;59.56
24610;BME280;12758;47.890;11.694;2022-09-06T12:48:24;94076.16;;;23.71;58.19
24610;BME280;12758;47.890;11.694;2022-09-06T12:50:59;94076.75;;;23.97;58.70
24610;BME280;12758;47.890;11.694;2022-09-06T12:53:26;94065.66;;;23.97;57.76
24610;BME280;12758;47.890;11.694;2022-09-06T12:56:01;94061.41;;;23.85;56.90
24610;BME280;12758;47.890;11.694;2022-09-06T12:58:29;94060.22;;;23.86;57.52
24610;BME280;12758;47.890;11.694;2022-09-06T13:00:55;94056.22;;;23.91;56.30
24610;BME280;12758;47.890;11.694;2022-09-06T13:03:25;94057.97;;;23.63;59.54
24610;BME280;12758;47.890;11.694;2022-09-06T13:05:54;94059.31;;;24.00;60.44
24610;BME280;12758;47.890;11.694;2022-09-06T13:08:22;94052.06;;;24.13;58.65
24610;BME280;12758;47.890;11.694;2022-09-06T13:10:50;94052.81;;;24.17;59.55
24610;BME280;12758;47.890;11.694;2022-09-06T13:13:17;94046.16;;;24.53;58.46